sensor_id;sensor_type;location;lat;lon;timestamp;temperature;humidity
19340;HTU21D;9804;52.350;6.684;2023-08-30T00:01:28;16.85;-6.00
19340;HTU21D;9804;52.350;6.684;2023-08-30T00:03:53;16.84;-6.00
19340;HTU21D;9804;52.350;6.684;2023-08-30T00:06:19;16.85;-6.00
19340;HTU21D;9804;52.350;6.684;2023-08-30T00:08:45;16.71;-6.00
19340;HTU21D;9804;52.350;6.684;2023-08-30T00:11:10;16.70;-6.00
19340;HTU21D;9804;52.350;6.684;2023-08-30T00:13:36;16.69;-6.00
19340;HTU21D;9804;52.350;6.684;2023-08-30T00:16:01;16.64;-6.00
19340;HTU21D;9804;52.350;6.684;2023-08-30T00:18:28;16.61;-6.00
19340;HTU21D;9804;52.350;6.684;2023-08-30T00:20:54;16.55;-6.00
19340;HTU21D;9804;52.350;6.684;2023-08-30T00:23:22;16.46;-6.00
19340;HTU21D;9804;52.350;6.684;2023-08-30T00:25:47;16.33;-6.00
19340;HTU21D;9804;52.350;6.684;2023-08-30T00:28:12;16.22;-6.00
19340;HTU21D;9804;52.350;6.684;2023-08-30T00:30:38;16.15;-6.00
19340;HTU21D;9804;52.350;6.684;2023-08-30T00:33:04;16.05;-6.00
19340;HTU21D;9804;52.350;6.684;2023-08-30T00:35:30;15.97;-6.00
19340;HTU21D;9804;52.350;6.684;2023-08-30T00:37:55;15.91;-6.00
19340;HTU21D;9804;52.350;6.684;2023-08-30T00:40:24;15.83;-6.00
19340;HTU21D;9804;52.350;6.684;2023-08-30T00:42:52;15.74;-6.00
19340;HTU21D;9804;52.350;6.684;2023-08-30T00:45:17;15.71;-6.00
19340;HTU21D;9804;52.350;6.684;2023-08-30T00:47:43;15.75;-6.00
19340;HTU21D;9804;52.350;6.684;2023-08-30T00:50:09;15.80;-6.00
19340;HTU21D;9804;52.350;6.684;2023-08-30T00:52:35;15.80;-6.00
19340;HTU21D;9804;52.350;6.684;2023-08-30T00:55:00;15.74;-6.00
19340;HTU21D;9804;52.350;6.684;2023-08-30T00:57:26;15.74;-6.00
19340;HTU21D;9804;52.350;6.684;2023-08-30T00:59:53;15.76;-6.00
19340;HTU21D;9804;52.350;6.684;2023-08-30T01:02:19;15.82;-6.00
19340;HTU21D;9804;52.350;6.684;2023-08-30T01:04:45;15.81;-6.00
19340;HTU21D;9804;52.350;6.684;2023-08-30T01:07:11;15.81;-6.00
19340;HTU21D;9804;52.350;6.684;2023-08-30T01:09:36;15.75;-6.00
19340;HTU21D;9804;52.350;6.684;2023-08-30T01:12:27;15.69;-6.00
19340;HTU21D;9804;52.350;6.684;2023-08-30T01:15:02;15.69;-6.00
19340;HTU21D;9804;52.350;6.684;2023-08-30T01:17:32;15.68;-6.00
19340;HTU21D;9804;52.350;6.684;2023-08-30T01:20:04;15.59;-6.00
19340;HTU21D;9804;52.350;6.684;2023-08-30T01:22:38;15.48;-6.00
19340;HTU21D;9804;52.350;6.684;2023-08-30T01:27:40;15.51;-6.00
19340;HTU21D;9804;52.350;6.684;2023-08-30T01:30:07;15.51;-6.00
19340;HTU21D;9804;52.350;6.684;2023-08-30T01:32:34;15.51;-6.00
19340;HTU21D;9804;52.350;6.684;2023-08-30T01:35:02;15.51;-6.00
19340;HTU21D;9804;52.350;6.684;2023-08-30T01:37:29;15.47;-6.00
19340;HTU21D;9804;52.350;6.684;2023-08-30T01:39:55;15.47;-6.00
19340;HTU21D;9804;52.350;6.684;2023-08-30T01:42:23;15.57;-6.00
19340;HTU21D;9804;52.350;6.684;2023-08-30T01:44:53;15.69;-6.00
19340;HTU21D;9804;52.350;6.684;2023-08-30T01:47:23;15.73;-6.00
19340;HTU21D;9804;52.350;6.684;2023-08-30T01:49:49;15.82;-6.00
19340;HTU21D;9804;52.350;6.684;2023-08-30T01:52:16;15.85;-6.00
19340;HTU21D;9804;52.350;6.684;2023-08-30T01:54:43;15.88;-6.00
19340;HTU21D;9804;52.350;6.684;2023-08-30T01:57:09;15.92;-6.00
19340;HTU21D;9804;52.350;6.684;2023-08-30T01:59:35;15.92;-6.00
19340;HTU21D;9804;52.350;6.684;2023-08-30T02:02:00;15.95;-6.00
19340;HTU21D;9804;52.350;6.684;2023-08-30T02:04:26;15.92;-6.00
19340;HTU21D;9804;52.350;6.684;2023-08-30T02:07:02;15.90;-6.00
19340;HTU21D;9804;52.350;6.684;2023-08-30T02:09:39;15.93;-6.00
19340;HTU21D;9804;52.350;6.684;2023-08-30T02:12:08;15.98;-6.00
19340;HTU21D;9804;52.350;6.684;2023-08-30T02:14:36;16.01;-6.00
19340;HTU21D;9804;52.350;6.684;2023-08-30T02:17:04;16.08;-6.00
19340;HTU21D;9804;52.350;6.684;2023-08-30T02:19:30;16.16;-6.00
19340;HTU21D;9804;52.350;6.684;2023-08-30T02:21:55;16.20;-6.00
19340;HTU21D;9804;52.350;6.684;2023-08-30T02:24:20;16.19;-6.00
19340;HTU21D;9804;52.350;6.684;2023-08-30T02:26:46;16.12;-6.00
19340;HTU21D;9804;52.350;6.684;2023-08-30T02:29:11;16.04;-6.00
19340;HTU21D;9804;52.350;6.684;2023-08-30T02:31:38;16.05;-6.00
19340;HTU21D;9804;52.350;6.684;2023-08-30T02:34:03;16.17;-6.00
19340;HTU21D;9804;52.350;6.684;2023-08-30T02:36:29;16.25;-6.00
19340;HTU21D;9804;52.350;6.684;2023-08-30T02:38:54;16.27;-6.00
19340;HTU21D;9804;52.350;6.684;2023-08-30T02:41:20;16.27;-6.00
19340;HTU21D;9804;52.350;6.684;2023-08-30T02:43:45;16.32;-6.00
19340;HTU21D;9804;52.350;6.684;2023-08-30T02:46:10;16.26;-6.00
19340;HTU21D;9804;52.350;6.684;2023-08-30T02:48:36;16.22;-6.00
19340;HTU21D;9804;52.350;6.684;2023-08-30T02:51:01;16.28;-6.00
19340;HTU21D;9804;52.350;6.684;2023-08-30T02:53:26;16.39;-6.00
19340;HTU21D;9804;52.350;6.684;2023-08-30T02:55:52;16.37;-6.00
19340;HTU21D;9804;52.350;6.684;2023-08-30T02:58:21;16.30;-6.00
19340;HTU21D;9804;52.350;6.684;2023-08-30T03:00:46;16.26;-6.00
19340;HTU21D;9804;52.350;6.684;2023-08-30T03:03:12;16.28;-6.00
19340;HTU21D;9804;52.350;6.684;2023-08-30T03:05:37;16.25;-6.00
19340;HTU21D;9804;52.350;6.684;2023-08-30T03:08:03;16.15;-6.00
19340;HTU21D;9804;52.350;6.684;2023-08-30T03:10:28;16.07;-6.00
19340;HTU21D;9804;52.350;6.684;2023-08-30T03:12:54;15.97;-6.00
19340;HTU21D;9804;52.350;6.684;2023-08-30T03:15:19;15.96;-6.00
19340;HTU21D;9804;52.350;6.684;2023-08-30T03:17:44;15.86;-6.00
19340;HTU21D;9804;52.350;6.684;2023-08-30T03:20:10;15.83;-6.00
19340;HTU21D;9804;52.350;6.684;2023-08-30T03:22:35;15.87;-6.00
19340;HTU21D;9804;52.350;6.684;2023-08-30T03:25:01;15.84;-6.00
19340;HTU21D;9804;52.350;6.684;2023-08-30T03:27:29;15.83;-6.00
19340;HTU21D;9804;52.350;6.684;2023-08-30T03:29:55;15.74;-6.00
19340;HTU21D;9804;52.350;6.684;2023-08-30T03:32:21;15.68;-6.00
19340;HTU21D;9804;52.350;6.684;2023-08-30T03:34:47;15.62;-6.00
19340;HTU21D;9804;52.350;6.684;2023-08-30T03:37:15;15.58;-6.00
19340;HTU21D;9804;52.350;6.684;2023-08-30T03:39:41;15.55;-6.00
19340;HTU21D;9804;52.350;6.684;2023-08-30T03:42:06;15.48;-6.00
19340;HTU21D;9804;52.350;6.684;2023-08-30T03:44:32;15.51;-6.00
19340;HTU21D;9804;52.350;6.684;2023-08-30T03:46:57;15.45;-6.00
19340;HTU21D;9804;52.350;6.684;2023-08-30T03:49:23;15.42;-6.00
19340;HTU21D;9804;52.350;6.684;2023-08-30T03:51:48;15.40;-6.00
19340;HTU21D;9804;52.350;6.684;2023-08-30T03:54:13;15.40;-6.00
19340;HTU21D;9804;52.350;6.684;2023-08-30T03:56:42;15.42;-6.00
19340;HTU21D;9804;52.350;6.684;2023-08-30T03:59:07;15.49;-6.00
19340;HTU21D;9804;52.350;6.684;2023-08-30T04:01:33;15.54;-6.00
19340;HTU21D;9804;52.350;6.684;2023-08-30T04:03:58;15.65;-6.00
19340;HTU21D;9804;52.350;6.684;2023-08-30T04:06:24;15.69;-6.00
19340;HTU21D;9804;52.350;6.684;2023-08-30T04:08:49;15.77;-6.00
19340;HTU21D;9804;52.350;6.684;2023-08-30T04:11:14;15.80;-6.00
19340;HTU21D;9804;52.350;6.684;2023-08-30T04:13:40;15.84;-6.00
19340;HTU21D;9804;52.350;6.684;2023-08-30T04:16:05;15.90;-6.00
19340;HTU21D;9804;52.350;6.684;2023-08-30T04:18:30;15.92;-6.00
19340;HTU21D;9804;52.350;6.684;2023-08-30T04:20:57;15.98;-6.00
19340;HTU21D;9804;52.350;6.684;2023-08-30T04:23:23;16.00;-6.00
19340;HTU21D;9804;52.350;6.684;2023-08-30T04:25:49;16.07;-6.00
19340;HTU21D;9804;52.350;6.684;2023-08-30T04:28:14;16.08;-6.00
19340;HTU21D;9804;52.350;6.684;2023-08-30T04:30:40;16.13;-6.00
19340;HTU21D;9804;52.350;6.684;2023-08-30T04:33:05;16.17;-6.00
19340;HTU21D;9804;52.350;6.684;2023-08-30T04:35:31;16.11;-6.00
19340;HTU21D;9804;52.350;6.684;2023-08-30T04:37:58;16.08;-6.00
19340;HTU21D;9804;52.350;6.684;2023-08-30T04:40:24;16.04;-6.00
19340;HTU21D;9804;52.350;6.684;2023-08-30T04:42:49;16.05;-6.00
19340;HTU21D;9804;52.350;6.684;2023-08-30T04:45:15;15.96;-6.00
19340;HTU21D;9804;52.350;6.684;2023-08-30T04:47:41;15.90;-6.00
19340;HTU21D;9804;52.350;6.684;2023-08-30T04:50:09;15.87;-6.00
19340;HTU21D;9804;52.350;6.684;2023-08-30T04:52:34;15.80;-6.00
19340;HTU21D;9804;52.350;6.684;2023-08-30T04:55:00;15.82;-6.00
19340;HTU21D;9804;52.350;6.684;2023-08-30T04:57:25;15.76;-6.00
19340;HTU21D;9804;52.350;6.684;2023-08-30T04:59:50;15.70;-6.00
19340;HTU21D;9804;52.350;6.684;2023-08-30T05:02:16;15.65;-6.00
19340;HTU21D;9804;52.350;6.684;2023-08-30T05:04:41;15.58;-6.00
19340;HTU21D;9804;52.350;6.684;2023-08-30T05:07:07;15.62;-6.00
19340;HTU21D;9804;52.350;6.684;2023-08-30T05:09:33;15.61;-6.00
19340;HTU21D;9804;52.350;6.684;2023-08-30T05:11:59;15.54;-6.00
19340;HTU21D;9804;52.350;6.684;2023-08-30T05:14:25;15.49;-6.00
19340;HTU21D;9804;52.350;6.684;2023-08-30T05:16:50;15.47;-6.00
19340;HTU21D;9804;52.350;6.684;2023-08-30T05:19:16;15.53;-6.00
19340;HTU21D;9804;52.350;6.684;2023-08-30T05:21:42;15.48;-6.00
19340;HTU21D;9804;52.350;6.684;2023-08-30T05:24:08;15.49;-6.00
19340;HTU21D;9804;52.350;6.684;2023-08-30T05:26:34;15.47;-6.00
19340;HTU21D;9804;52.350;6.684;2023-08-30T05:28:59;15.49;-6.00
19340;HTU21D;9804;52.350;6.684;2023-08-30T05:31:24;15.53;-6.00
19340;HTU21D;9804;52.350;6.684;2023-08-30T05:33:50;15.56;-6.00
19340;HTU21D;9804;52.350;6.684;2023-08-30T05:36:16;15.57;-6.00
19340;HTU21D;9804;52.350;6.684;2023-08-30T05:38:42;15.61;-6.00
19340;HTU21D;9804;52.350;6.684;2023-08-30T05:41:07;15.70;-6.00
19340;HTU21D;9804;52.350;6.684;2023-08-30T05:43:33;15.80;-6.00
19340;HTU21D;9804;52.350;6.684;2023-08-30T05:45:58;15.86;-6.00
19340;HTU21D;9804;52.350;6.684;2023-08-30T05:48:32;15.95;-6.00
19340;HTU21D;9804;52.350;6.684;2023-08-30T05:50:57;15.93;-6.00
19340;HTU21D;9804;52.350;6.684;2023-08-30T05:53:23;16.00;-6.00
19340;HTU21D;9804;52.350;6.684;2023-08-30T05:55:49;16.18;-6.00
19340;HTU21D;9804;52.350;6.684;2023-08-30T05:58:14;16.27;-6.00
19340;HTU21D;9804;52.350;6.684;2023-08-30T06:00:41;16.32;-6.00
19340;HTU21D;9804;52.350;6.684;2023-08-30T06:03:06;16.45;-6.00
19340;HTU21D;9804;52.350;6.684;2023-08-30T06:05:32;16.57;-6.00
19340;HTU21D;9804;52.350;6.684;2023-08-30T06:07:58;16.73;-6.00
19340;HTU21D;9804;52.350;6.684;2023-08-30T06:10:23;16.67;-6.00
19340;HTU21D;9804;52.350;6.684;2023-08-30T06:12:48;16.84;-6.00
19340;HTU21D;9804;52.350;6.684;2023-08-30T06:15:14;16.80;-6.00
19340;HTU21D;9804;52.350;6.684;2023-08-30T06:17:39;16.91;-6.00
19340;HTU21D;9804;52.350;6.684;2023-08-30T06:20:05;16.93;-6.00
19340;HTU21D;9804;52.350;6.684;2023-08-30T06:22:30;17.18;-6.00
19340;HTU21D;9804;52.350;6.684;2023-08-30T06:24:56;17.10;-6.00
19340;HTU21D;9804;52.350;6.684;2023-08-30T06:27:23;17.05;-6.00
19340;HTU21D;9804;52.350;6.684;2023-08-30T06:29:48;17.04;-6.00
19340;HTU21D;9804;52.350;6.684;2023-08-30T06:32:13;17.16;-6.00
19340;HTU21D;9804;52.350;6.684;2023-08-30T06:34:39;17.29;-6.00
19340;HTU21D;9804;52.350;6.684;2023-08-30T06:37:04;17.31;-6.00
19340;HTU21D;9804;52.350;6.684;2023-08-30T06:39:33;17.26;-6.00
19340;HTU21D;9804;52.350;6.684;2023-08-30T06:42:00;17.36;-6.00
19340;HTU21D;9804;52.350;6.684;2023-08-30T06:44:25;17.45;-6.00
19340;HTU21D;9804;52.350;6.684;2023-08-30T06:46:51;17.45;-6.00
19340;HTU21D;9804;52.350;6.684;2023-08-30T06:49:16;17.34;-6.00
19340;HTU21D;9804;52.350;6.684;2023-08-30T06:51:42;17.50;-6.00
19340;HTU21D;9804;52.350;6.684;2023-08-30T06:54:08;17.60;-6.00
19340;HTU21D;9804;52.350;6.684;2023-08-30T06:56:33;17.64;-6.00
19340;HTU21D;9804;52.350;6.684;2023-08-30T06:58:58;17.89;-6.00
19340;HTU21D;9804;52.350;6.684;2023-08-30T07:01:24;18.02;-6.00
19340;HTU21D;9804;52.350;6.684;2023-08-30T07:03:49;18.05;-6.00
19340;HTU21D;9804;52.350;6.684;2023-08-30T07:06:14;18.25;-6.00
19340;HTU21D;9804;52.350;6.684;2023-08-30T07:08:40;18.49;-6.00
19340;HTU21D;9804;52.350;6.684;2023-08-30T07:11:05;18.65;-6.00
19340;HTU21D;9804;52.350;6.684;2023-08-30T07:13:31;19.02;-6.00
19340;HTU21D;9804;52.350;6.684;2023-08-30T07:15:56;19.01;-6.00
19340;HTU21D;9804;52.350;6.684;2023-08-30T07:18:21;19.01;-6.00
19340;HTU21D;9804;52.350;6.684;2023-08-30T07:20:47;18.96;-6.00
19340;HTU21D;9804;52.350;6.684;2023-08-30T07:23:12;18.83;-6.00
19340;HTU21D;9804;52.350;6.684;2023-08-30T07:25:38;18.72;-6.00
19340;HTU21D;9804;52.350;6.684;2023-08-30T07:28:04;18.78;-6.00
19340;HTU21D;9804;52.350;6.684;2023-08-30T07:30:30;18.78;-6.00
19340;HTU21D;9804;52.350;6.684;2023-08-30T07:32:56;18.85;-6.00
19340;HTU21D;9804;52.350;6.684;2023-08-30T07:35:21;18.79;-6.00
19340;HTU21D;9804;52.350;6.684;2023-08-30T07:37:47;18.74;-6.00
19340;HTU21D;9804;52.350;6.684;2023-08-30T07:40:12;18.54;-6.00
19340;HTU21D;9804;52.350;6.684;2023-08-30T07:42:38;18.64;-6.00
19340;HTU21D;9804;52.350;6.684;2023-08-30T07:45:04;18.55;-6.00
19340;HTU21D;9804;52.350;6.684;2023-08-30T07:47:29;18.64;-6.00
19340;HTU21D;9804;52.350;6.684;2023-08-30T07:49:55;18.62;-6.00
19340;HTU21D;9804;52.350;6.684;2023-08-30T07:52:20;18.68;-6.00
19340;HTU21D;9804;52.350;6.684;2023-08-30T07:54:45;18.79;-6.00
19340;HTU21D;9804;52.350;6.684;2023-08-30T07:57:11;18.99;-6.00
19340;HTU21D;9804;52.350;6.684;2023-08-30T07:59:37;19.11;-6.00
19340;HTU21D;9804;52.350;6.684;2023-08-30T08:02:03;19.35;-6.00
19340;HTU21D;9804;52.350;6.684;2023-08-30T08:04:31;19.61;-6.00
19340;HTU21D;9804;52.350;6.684;2023-08-30T08:06:57;19.57;-6.00
19340;HTU21D;9804;52.350;6.684;2023-08-30T08:09:22;19.71;-6.00
19340;HTU21D;9804;52.350;6.684;2023-08-30T08:11:49;19.95;-6.00
19340;HTU21D;9804;52.350;6.684;2023-08-30T08:14:14;19.89;-6.00
19340;HTU21D;9804;52.350;6.684;2023-08-30T08:16:40;19.97;-6.00
19340;HTU21D;9804;52.350;6.684;2023-08-30T08:19:05;19.98;-6.00
19340;HTU21D;9804;52.350;6.684;2023-08-30T08:21:32;20.07;-6.00
19340;HTU21D;9804;52.350;6.684;2023-08-30T08:23:58;20.03;-6.00
19340;HTU21D;9804;52.350;6.684;2023-08-30T08:26:23;19.95;-6.00
19340;HTU21D;9804;52.350;6.684;2023-08-30T08:28:48;20.06;-6.00
19340;HTU21D;9804;52.350;6.684;2023-08-30T08:31:14;19.65;-6.00
19340;HTU21D;9804;52.350;6.684;2023-08-30T08:33:40;19.50;-6.00
19340;HTU21D;9804;52.350;6.684;2023-08-30T08:36:05;19.42;-6.00
19340;HTU21D;9804;52.350;6.684;2023-08-30T08:38:31;18.96;-6.00
19340;HTU21D;9804;52.350;6.684;2023-08-30T08:41:05;18.81;-6.00
19340;HTU21D;9804;52.350;6.684;2023-08-30T08:43:32;18.76;-6.00
19340;HTU21D;9804;52.350;6.684;2023-08-30T08:46:00;18.62;-6.00
19340;HTU21D;9804;52.350;6.684;2023-08-30T08:48:28;18.68;-6.00
19340;HTU21D;9804;52.350;6.684;2023-08-30T08:50:54;18.84;-6.00
19340;HTU21D;9804;52.350;6.684;2023-08-30T08:53:20;18.56;-6.00
19340;HTU21D;9804;52.350;6.684;2023-08-30T08:55:46;18.37;-6.00
19340;HTU21D;9804;52.350;6.684;2023-08-30T08:58:13;18.32;-6.00
19340;HTU21D;9804;52.350;6.684;2023-08-30T09:00:41;18.36;-6.00
19340;HTU21D;9804;52.350;6.684;2023-08-30T09:03:08;18.23;-6.00
19340;HTU21D;9804;52.350;6.684;2023-08-30T09:05:35;18.27;-6.00
19340;HTU21D;9804;52.350;6.684;2023-08-30T09:08:05;18.49;-6.00
19340;HTU21D;9804;52.350;6.684;2023-08-30T09:10:34;18.42;-6.00
19340;HTU21D;9804;52.350;6.684;2023-08-30T09:13:00;18.37;-6.00
19340;HTU21D;9804;52.350;6.684;2023-08-30T09:15:32;18.13;-6.00
19340;HTU21D;9804;52.350;6.684;2023-08-30T09:17:58;18.09;-6.00
19340;HTU21D;9804;52.350;6.684;2023-08-30T09:20:24;18.13;14.04
19340;HTU21D;9804;52.350;6.684;2023-08-30T09:22:49;17.96;17.02
19340;HTU21D;9804;52.350;6.684;2023-08-30T09:25:25;18.06;52.08
19340;HTU21D;9804;52.350;6.684;2023-08-30T09:27:57;18.19;41.96
19340;HTU21D;9804;52.350;6.684;2023-08-30T09:30:23;18.11;46.62
19340;HTU21D;9804;52.350;6.684;2023-08-30T09:32:49;18.10;65.22
19340;HTU21D;9804;52.350;6.684;2023-08-30T09:35:15;18.04;59.84
19340;HTU21D;9804;52.350;6.684;2023-08-30T09:37:41;18.07;66.33
19340;HTU21D;9804;52.350;6.684;2023-08-30T09:40:09;18.13;76.16
19340;HTU21D;9804;52.350;6.684;2023-08-30T09:42:35;18.24;89.24
19340;HTU21D;9804;52.350;6.684;2023-08-30T09:45:18;18.32;72.71
19340;HTU21D;9804;52.350;6.684;2023-08-30T09:47:49;18.32;61.74
19340;HTU21D;9804;52.350;6.684;2023-08-30T09:50:20;18.29;89.07
19340;HTU21D;9804;52.350;6.684;2023-08-30T09:52:49;18.34;77.17
19340;HTU21D;9804;52.350;6.684;2023-08-30T09:55:16;18.54;88.56
19340;HTU21D;9804;52.350;6.684;2023-08-30T09:57:43;18.65;76.03
19340;HTU21D;9804;52.350;6.684;2023-08-30T10:00:09;18.98;112.13
19340;HTU21D;9804;52.350;6.684;2023-08-30T10:02:39;19.09;76.63
19340;HTU21D;9804;52.350;6.684;2023-08-30T10:05:08;18.99;53.07
19340;HTU21D;9804;52.350;6.684;2023-08-30T10:07:35;18.55;59.31
19340;HTU21D;9804;52.350;6.684;2023-08-30T10:10:03;18.71;92.66
19340;HTU21D;9804;52.350;6.684;2023-08-30T10:12:31;18.64;108.60
19340;HTU21D;9804;52.350;6.684;2023-08-30T10:14:59;18.66;78.42
19340;HTU21D;9804;52.350;6.684;2023-08-30T10:17:28;18.61;73.86
19340;HTU21D;9804;52.350;6.684;2023-08-30T10:19:55;18.54;83.16
19340;HTU21D;9804;52.350;6.684;2023-08-30T10:22:22;18.58;118.99
19340;HTU21D;9804;52.350;6.684;2023-08-30T10:24:52;18.57;116.59
19340;HTU21D;9804;52.350;6.684;2023-08-30T10:27:19;18.51;118.99
19340;HTU21D;9804;52.350;6.684;2023-08-30T10:29:47;18.46;117.41
19340;HTU21D;9804;52.350;6.684;2023-08-30T10:32:13;18.34;118.99
19340;HTU21D;9804;52.350;6.684;2023-08-30T10:34:38;18.51;118.99
19340;HTU21D;9804;52.350;6.684;2023-08-30T10:37:07;18.48;118.99
19340;HTU21D;9804;52.350;6.684;2023-08-30T10:39:38;18.35;118.99
19340;HTU21D;9804;52.350;6.684;2023-08-30T10:42:12;18.56;118.99
19340;HTU21D;9804;52.350;6.684;2023-08-30T10:44:52;18.79;118.99
19340;HTU21D;9804;52.350;6.684;2023-08-30T10:49:54;18.56;118.99
19340;HTU21D;9804;52.350;6.684;2023-08-30T10:52:21;18.54;118.99
19340;HTU21D;9804;52.350;6.684;2023-08-30T10:54:46;18.68;118.99
19340;HTU21D;9804;52.350;6.684;2023-08-30T10:57:14;18.86;118.99
19340;HTU21D;9804;52.350;6.684;2023-08-30T10:59:39;18.73;118.99
19340;HTU21D;9804;52.350;6.684;2023-08-30T11:02:06;18.72;118.99
19340;HTU21D;9804;52.350;6.684;2023-08-30T11:04:32;18.58;118.99
19340;HTU21D;9804;52.350;6.684;2023-08-30T11:06:57;18.58;118.99
19340;HTU21D;9804;52.350;6.684;2023-08-30T11:09:23;18.53;118.99
19340;HTU21D;9804;52.350;6.684;2023-08-30T11:11:50;18.59;118.99
19340;HTU21D;9804;52.350;6.684;2023-08-30T11:14:17;18.59;118.99
19340;HTU21D;9804;52.350;6.684;2023-08-30T11:16:42;18.51;118.99
19340;HTU21D;9804;52.350;6.684;2023-08-30T11:19:09;18.41;118.99
19340;HTU21D;9804;52.350;6.684;2023-08-30T11:21:41;18.27;118.99
19340;HTU21D;9804;52.350;6.684;2023-08-30T11:24:08;18.15;118.99
19340;HTU21D;9804;52.350;6.684;2023-08-30T11:26:34;18.15;118.99
19340;HTU21D;9804;52.350;6.684;2023-08-30T11:29:07;18.24;118.99
19340;HTU21D;9804;52.350;6.684;2023-08-30T11:31:32;18.32;118.99
19340;HTU21D;9804;52.350;6.684;2023-08-30T11:33:59;18.42;118.99
19340;HTU21D;9804;52.350;6.684;2023-08-30T11:36:30;18.14;118.99
19340;HTU21D;9804;52.350;6.684;2023-08-30T11:38:56;18.46;118.99
19340;HTU21D;9804;52.350;6.684;2023-08-30T11:41:23;18.43;118.99
19340;HTU21D;9804;52.350;6.684;2023-08-30T11:43:49;18.39;118.99
19340;HTU21D;9804;52.350;6.684;2023-08-30T11:46:14;18.36;118.99
19340;HTU21D;9804;52.350;6.684;2023-08-30T11:48:41;18.08;118.99
19340;HTU21D;9804;52.350;6.684;2023-08-30T11:51:08;18.20;118.99
19340;HTU21D;9804;52.350;6.684;2023-08-30T11:53:34;18.39;118.99
19340;HTU21D;9804;52.350;6.684;2023-08-30T11:56:00;18.36;118.99
19340;HTU21D;9804;52.350;6.684;2023-08-30T11:58:25;18.34;118.99
19340;HTU21D;9804;52.350;6.684;2023-08-30T12:00:51;18.40;118.99
19340;HTU21D;9804;52.350;6.684;2023-08-30T12:03:19;18.54;118.99
19340;HTU21D;9804;52.350;6.684;2023-08-30T12:05:46;18.62;118.99
19340;HTU21D;9804;52.350;6.684;2023-08-30T12:08:28;18.74;118.99
19340;HTU21D;9804;52.350;6.684;2023-08-30T12:10:55;18.66;118.99
19340;HTU21D;9804;52.350;6.684;2023-08-30T12:13:24;18.86;118.99
19340;HTU21D;9804;52.350;6.684;2023-08-30T12:15:54;18.93;118.99
19340;HTU21D;9804;52.350;6.684;2023-08-30T12:18:32;19.31;118.99
19340;HTU21D;9804;52.350;6.684;2023-08-30T12:21:02;19.75;118.99
19340;HTU21D;9804;52.350;6.684;2023-08-30T12:23:32;20.16;118.99
19340;HTU21D;9804;52.350;6.684;2023-08-30T12:26:05;20.22;118.99
19340;HTU21D;9804;52.350;6.684;2023-08-30T12:28:33;19.99;72.29
19340;HTU21D;9804;52.350;6.684;2023-08-30T12:30:58;20.07;59.13
19340;HTU21D;9804;52.350;6.684;2023-08-30T12:33:24;19.76;85.41
19340;HTU21D;9804;52.350;6.684;2023-08-30T12:35:54;19.92;70.00
19340;HTU21D;9804;52.350;6.684;2023-08-30T12:38:20;20.09;44.56
19340;HTU21D;9804;52.350;6.684;2023-08-30T12:40:50;19.70;96.49
19340;HTU21D;9804;52.350;6.684;2023-08-30T12:43:16;19.72;118.99
19340;HTU21D;9804;52.350;6.684;2023-08-30T12:45:43;19.57;117.48
19340;HTU21D;9804;52.350;6.684;2023-08-30T12:48:09;19.91;118.99
19340;HTU21D;9804;52.350;6.684;2023-08-30T12:50:38;20.14;82.04
19340;HTU21D;9804;52.350;6.684;2023-08-30T12:53:04;20.10;38.55
19340;HTU21D;9804;52.350;6.684;2023-08-30T12:55:30;20.31;55.90
19340;HTU21D;9804;52.350;6.684;2023-08-30T12:57:56;20.44;-0.05
19340;HTU21D;9804;52.350;6.684;2023-08-30T13:00:21;20.51;-6.00
19340;HTU21D;9804;52.350;6.684;2023-08-30T13:02:47;20.51;-6.00
19340;HTU21D;9804;52.350;6.684;2023-08-30T13:05:12;20.87;-6.00
19340;HTU21D;9804;52.350;6.684;2023-08-30T13:07:38;20.74;-6.00
19340;HTU21D;9804;52.350;6.684;2023-08-30T13:10:05;21.19;-6.00
19340;HTU21D;9804;52.350;6.684;2023-08-30T13:12:31;21.15;-6.00
19340;HTU21D;9804;52.350;6.684;2023-08-30T13:14:56;20.92;-6.00
19340;HTU21D;9804;52.350;6.684;2023-08-30T13:17:21;20.95;-6.00
19340;HTU21D;9804;52.350;6.684;2023-08-30T13:19:47;20.69;-6.00
19340;HTU21D;9804;52.350;6.684;2023-08-30T13:22:12;21.20;-6.00
19340;HTU21D;9804;52.350;6.684;2023-08-30T13:24:37;21.20;-6.00
19340;HTU21D;9804;52.350;6.684;2023-08-30T13:27:03;21.37;-6.00
19340;HTU21D;9804;52.350;6.684;2023-08-30T13:29:29;21.49;-6.00
19340;HTU21D;9804;52.350;6.684;2023-08-30T13:31:54;21.87;-6.00
19340;HTU21D;9804;52.350;6.684;2023-08-30T13:34:20;21.91;-6.00
19340;HTU21D;9804;52.350;6.684;2023-08-30T13:36:45;22.26;-6.00
19340;HTU21D;9804;52.350;6.684;2023-08-30T13:39:11;21.89;-6.00
19340;HTU21D;9804;52.350;6.684;2023-08-30T13:41:36;22.06;-6.00
19340;HTU21D;9804;52.350;6.684;2023-08-30T13:44:02;22.10;-6.00
19340;HTU21D;9804;52.350;6.684;2023-08-30T13:46:31;21.75;-6.00
19340;HTU21D;9804;52.350;6.684;2023-08-30T13:48:56;21.52;-6.00
19340;HTU21D;9804;52.350;6.684;2023-08-30T13:51:23;21.77;-6.00
19340;HTU21D;9804;52.350;6.684;2023-08-30T13:53:49;21.67;-6.00
19340;HTU21D;9804;52.350;6.684;2023-08-30T13:56:14;21.48;-6.00
19340;HTU21D;9804;52.350;6.684;2023-08-30T13:58:40;21.87;-6.00
19340;HTU21D;9804;52.350;6.684;2023-08-30T14:01:05;22.17;-6.00
19340;HTU21D;9804;52.350;6.684;2023-08-30T14:03:30;21.91;-6.00
19340;HTU21D;9804;52.350;6.684;2023-08-30T14:05:56;22.02;-6.00
19340;HTU21D;9804;52.350;6.684;2023-08-30T14:08:21;21.63;-6.00
19340;HTU21D;9804;52.350;6.684;2023-08-30T14:10:47;21.74;-6.00
19340;HTU21D;9804;52.350;6.684;2023-08-30T14:13:13;21.73;-6.00
19340;HTU21D;9804;52.350;6.684;2023-08-30T14:15:38;22.07;-6.00
19340;HTU21D;9804;52.350;6.684;2023-08-30T14:18:04;21.84;-6.00
19340;HTU21D;9804;52.350;6.684;2023-08-30T14:20:29;22.04;-6.00
19340;HTU21D;9804;52.350;6.684;2023-08-30T14:22:55;22.16;-6.00
19340;HTU21D;9804;52.350;6.684;2023-08-30T14:25:20;21.28;-6.00
19340;HTU21D;9804;52.350;6.684;2023-08-30T14:27:46;21.52;-6.00
19340;HTU21D;9804;52.350;6.684;2023-08-30T14:30:11;21.25;-6.00
19340;HTU21D;9804;52.350;6.684;2023-08-30T14:32:37;21.59;-6.00
19340;HTU21D;9804;52.350;6.684;2023-08-30T14:35:03;21.64;-6.00
19340;HTU21D;9804;52.350;6.684;2023-08-30T14:37:29;21.98;-6.00
19340;HTU21D;9804;52.350;6.684;2023-08-30T14:39:54;21.99;-6.00
19340;HTU21D;9804;52.350;6.684;2023-08-30T14:42:20;21.81;-6.00
19340;HTU21D;9804;52.350;6.684;2023-08-30T14:44:50;21.63;-6.00
19340;HTU21D;9804;52.350;6.684;2023-08-30T14:47:16;21.11;-6.00
19340;HTU21D;9804;52.350;6.684;2023-08-30T14:49:42;21.32;-6.00
19340;HTU21D;9804;52.350;6.684;2023-08-30T14:52:07;21.73;-6.00
19340;HTU21D;9804;52.350;6.684;2023-08-30T14:54:33;21.46;-6.00
19340;HTU21D;9804;52.350;6.684;2023-08-30T14:56:58;21.40;-6.00
19340;HTU21D;9804;52.350;6.684;2023-08-30T14:59:23;21.81;-6.00
19340;HTU21D;9804;52.350;6.684;2023-08-30T15:01:49;21.92;-6.00
19340;HTU21D;9804;52.350;6.684;2023-08-30T15:04:14;21.67;-6.00
19340;HTU21D;9804;52.350;6.684;2023-08-30T15:06:39;21.72;-6.00
19340;HTU21D;9804;52.350;6.684;2023-08-30T15:09:05;21.65;-6.00
19340;HTU21D;9804;52.350;6.684;2023-08-30T15:11:31;21.76;-6.00
19340;HTU21D;9804;52.350;6.684;2023-08-30T15:13:56;21.87;-6.00
19340;HTU21D;9804;52.350;6.684;2023-08-30T15:16:22;22.41;-6.00
19340;HTU21D;9804;52.350;6.684;2023-08-30T15:18:47;22.10;-6.00
19340;HTU21D;9804;52.350;6.684;2023-08-30T15:21:13;21.89;-6.00
19340;HTU21D;9804;52.350;6.684;2023-08-30T15:23:38;21.93;-6.00
19340;HTU21D;9804;52.350;6.684;2023-08-30T15:26:04;22.52;-6.00
19340;HTU21D;9804;52.350;6.684;2023-08-30T15:28:31;22.18;-6.00